Airport View

Enter AWOS ICAO identifier for current METAR.

ex. KFNL

KMYV 100353Z AUTO 17004KT 10SM CLR 31/12 A2980 RMK AO2 SLP094 T03060117

10 Jul 2020 04:21

Frequency: 118.475

Phone: 530-742-0695

Other Area AWOS: KBAB - KLHM - KSMF - KOVE

TAF KBAB 100300Z 1003/1109 17006KT 9999 SKC QNH2977INS BECMG 1017/1018 22009KT 9999 SKC QNH2985INS BECMG 1103/1104 16006KT 9999 SKC QNH2985INS TX37/1023Z TN16/1013Z